Terminal Aerodrome Forecast
Issued by NWS

Current Version | Previous Version | Text Only | Print | Product List | Glossary On
Versions: 1 2 3 4 5 6 7 8 9 10 11 12
000
FTUS46 KMTR 260500
TAFMRY
TAF
KMRY 260527Z 2606/2706 10003KT P6SM SKC
     FM261800 29007KT P6SM FEW250
     FM270300 14004KT P6SM FEW250=

USA.gov is the U.S. government's official web portal to all federal, state and local government web resources and services.